Time,TemperatureF,DewpointF,PressureIn,WindDirection,WindDirectionDegrees,WindSpeedMPH,WindSpeedGustMPH,Humidity,HourlyPrecipIn,Conditions,Clouds,dailyrainin,SolarRadiationWatts/m^2,SoftwareType,DateUTC
2013-01-24 00:02:00,31.3,19.8,30.39,NNE,22,12.7,12.7,62,0.00,CLR,,0.00,0.0,WeatherDisplay:10.37,2013-01-24 06:02:00,
2013-01-24 00:07:00,31.2,20.1,30.40,ENE,76,9.2,9.2,63,0.00,CLR,,0.00,0.0,WeatherDisplay:10.37,2013-01-24 06:07:00,
2013-01-24 00:12:00,31.0,19.9,30.39,North,11,11.5,11.5,63,0.00,CLR,,0.00,0.0,WeatherDisplay:10.37,2013-01-24 06:12:00,
2013-01-24 00:17:00,30.8,19.7,30.38,NE,45,9.2,9.2,63,0.00,CLR,,0.00,0.0,WeatherDisplay:10.37,2013-01-24 06:17:00,
2013-01-24 00:22:00,30.6,19.5,30.39,NE,41,11.5,11.5,63,0.00,CLR,,0.00,0.0,WeatherDisplay:10.37,2013-01-24 06:22:00,
2013-01-24 00:27:00,30.5,19.4,30.38,ENE,67,14.0,14.0,63,0.00,CLR,,0.00,0.0,WeatherDisplay:10.37,2013-01-24 06:27:00,
2013-01-24 00:32:00,30.3,19.2,30.39,NE,37,13.8,13.8,63,0.00,CLR,,0.00,0.0,WeatherDisplay:10.37,2013-01-24 06:32:00,
2013-01-24 00:37:00,30.1,19.0,30.38,NE,41,16.1,16.1,63,0.00,CLR,,0.00,0.0,WeatherDisplay:10.37,2013-01-24 06:37:00,
2013-01-24 00:42:00,30.0,18.9,30.38,NE,48,15.0,15.0,63,0.00,CLR,,0.00,0.0,WeatherDisplay:10.37,2013-01-24 06:42:00,
2013-01-24 00:47:00,29.8,18.7,30.38,NNE,26,11.5,11.5,63,0.00,CLR,,0.00,0.0,WeatherDisplay:10.37,2013-01-24 06:47:00,
2013-01-24 00:52:00,29.7,18.6,30.38,ENE,57,8.1,8.1,63,0.00,CLR,,0.00,0.0,WeatherDisplay:10.37,2013-01-24 06:52:00,
2013-01-24 00:57:00,29.7,18.6,30.38,NNE,24,10.4,10.4,63,0.00,CLR,,0.00,0.0,WeatherDisplay:10.37,2013-01-24 06:57:00,
2013-01-24 01:02:00,29.6,18.9,30.37,ENE,71,11.5,11.5,64,0.00,CLR,,0.00,0.0,WeatherDisplay:10.37,2013-01-24 07:02:00,
2013-01-24 01:07:00,29.4,18.7,30.37,NE,54,8.1,8.1,64,0.00,CLR,,0.00,0.0,WeatherDisplay:10.37,2013-01-24 07:07:00,
2013-01-24 01:12:00,29.3,18.6,30.38,North,11,11.5,11.5,64,0.00,CLR,,0.00,0.0,WeatherDisplay:10.37,2013-01-24 07:12:00,
2013-01-24 01:17:00,29.2,18.5,30.38,ENE,62,11.5,11.5,64,0.00,CLR,,0.00,0.0,WeatherDisplay:10.37,2013-01-24 07:17:00,
2013-01-24 01:22:00,29.0,18.3,30.38,NE,42,11.5,11.5,64,0.00,CLR,,0.00,0.0,WeatherDisplay:10.37,2013-01-24 07:22:00,
2013-01-24 01:27:00,29.0,18.3,30.39,NE,44,8.1,8.1,64,0.00,CLR,,0.00,0.0,WeatherDisplay:10.37,2013-01-24 07:27:00,
2013-01-24 01:32:00,28.9,18.2,30.38,ENE,63,8.1,8.1,64,0.00,CLR,,0.00,0.0,WeatherDisplay:10.37,2013-01-24 07:32:00,
2013-01-24 01:37:00,28.8,18.1,30.39,NNE,17,17.3,17.3,64,0.00,CLR,,0.00,0.0,WeatherDisplay:10.37,2013-01-24 07:37:00,
2013-01-24 01:42:00,28.7,18.1,30.39,NE,52,8.1,8.1,64,0.00,CLR,,0.00,0.0,WeatherDisplay:10.37,2013-01-24 07:42:00,
2013-01-24 01:47:00,28.6,18.3,30.39,NE,40,8.1,8.1,65,0.00,CLR,,0.00,0.0,WeatherDisplay:10.37,2013-01-24 07:47:00,
2013-01-24 01:52:00,28.4,18.1,30.38,ENE,74,12.7,12.7,65,0.00,CLR,,0.00,0.0,WeatherDisplay:10.37,2013-01-24 07:52:00,
2013-01-24 01:57:00,28.3,18.0,30.39,NNE,26,10.4,10.4,65,0.00,CLR,,0.00,0.0,WeatherDisplay:10.37,2013-01-24 07:57:00,
2013-01-24 02:02:00,28.1,17.8,30.39,North,355,13.0,13.0,65,0.00,CLR,,0.00,0.0,WeatherDisplay:10.37,2013-01-24 08:02:00,
2013-01-24 02:07:00,28.0,17.7,30.39,NE,49,11.5,11.5,65,0.00,CLR,,0.00,0.0,WeatherDisplay:10.37,2013-01-24 08:07:00,
2013-01-24 02:12:00,27.9,18.0,30.39,NE,43,12.7,12.7,66,0.00,CLR,,0.00,0.0,WeatherDisplay:10.37,2013-01-24 08:12:00,
2013-01-24 02:17:00,27.8,17.6,30.39,NE,52,9.2,9.2,65,0.00,CLR,,0.00,0.0,WeatherDisplay:10.37,2013-01-24 08:17:00,
2013-01-24 02:22:00,27.6,17.4,30.39,NNE,26,9.2,9.2,65,0.00,CLR,,0.00,0.0,WeatherDisplay:10.37,2013-01-24 08:22:00,
2013-01-24 02:27:00,27.5,17.3,30.39,NNE,24,6.9,6.9,65,0.00,CLR,,0.00,0.0,WeatherDisplay:10.37,2013-01-24 08:27:00,
2013-01-24 02:32:00,27.3,17.1,30.39,NE,42,16.1,16.1,65,0.00,CLR,,0.00,0.0,WeatherDisplay:10.37,2013-01-24 08:32:00,
2013-01-24 02:37:00,27.2,17.0,30.39,ENE,70,8.1,8.4,65,0.00,CLR,,0.00,0.0,WeatherDisplay:10.37,2013-01-24 08:37:00,
2013-01-24 02:42:00,27.1,16.5,30.39,North,9,13.8,13.8,64,0.00,CLR,,0.00,0.0,WeatherDisplay:10.37,2013-01-24 08:42:00,
2013-01-24 02:47:00,27.0,16.4,30.39,NE,48,13.0,13.0,64,0.00,CLR,,0.00,0.0,WeatherDisplay:10.37,2013-01-24 08:47:00,
2013-01-24 02:52:00,26.8,16.2,30.40,NE,53,13.8,13.8,64,0.00,CLR,,0.00,0.0,WeatherDisplay:10.37,2013-01-24 08:52:00,
2013-01-24 02:57:00,26.7,16.5,30.40,NE,51,10.4,10.4,65,0.00,CLR,,0.00,0.0,WeatherDisplay:10.37,2013-01-24 08:57:00,
2013-01-24 03:02:00,26.6,16.4,30.40,ENE,61,10.0,10.0,65,0.00,CLR,,0.00,0.0,WeatherDisplay:10.37,2013-01-24 09:02:00,
2013-01-24 03:07:00,26.3,16.1,30.40,East,88,11.5,11.5,65,0.00,CLR,,0.00,0.0,WeatherDisplay:10.37,2013-01-24 09:07:00,
2013-01-24 03:12:00,26.2,16.0,30.40,NNE,17,12.7,12.7,65,0.00,CLR,,0.00,0.0,WeatherDisplay:10.37,2013-01-24 09:12:00,
2013-01-24 03:17:00,26.1,15.9,30.40,ENE,57,12.7,12.7,65,0.00,CLR,,0.00,0.0,WeatherDisplay:10.37,2013-01-24 09:17:00,
2013-01-24 03:22:00,26.0,16.2,30.40,NE,51,10.4,10.4,66,0.00,CLR,,0.00,0.0,WeatherDisplay:10.37,2013-01-24 09:22:00,
2013-01-24 03:27:00,25.8,16.0,30.40,NNE,16,11.5,11.5,66,0.00,CLR,,0.00,0.0,WeatherDisplay:10.37,2013-01-24 09:27:00,
2013-01-24 03:32:00,25.7,16.3,30.39,ENE,74,5.8,5.8,67,0.00,CLR,,0.00,0.0,WeatherDisplay:10.37,2013-01-24 09:32:00,
2013-01-24 03:37:00,25.6,16.2,30.39,NE,41,9.2,9.2,67,0.00,CLR,,0.00,0.0,WeatherDisplay:10.37,2013-01-24 09:37:00,
2013-01-24 03:42:00,25.4,16.3,30.39,NNE,24,11.5,11.5,68,0.00,CLR,,0.00,0.0,WeatherDisplay:10.37,2013-01-24 09:42:00,
2013-01-24 03:47:00,25.2,16.1,30.39,NE,50,11.5,11.5,68,0.00,CLR,,0.00,0.0,WeatherDisplay:10.37,2013-01-24 09:47:00,
2013-01-24 03:52:00,25.1,16.0,30.38,NNE,22,11.5,11.5,68,0.00,CLR,,0.00,0.0,WeatherDisplay:10.37,2013-01-24 09:52:00,
2013-01-24 03:57:00,25.0,15.9,30.38,NNE,27,17.3,17.3,68,0.00,CLR,,0.00,0.0,WeatherDisplay:10.37,2013-01-24 09:57:00,
2013-01-24 04:02:00,24.9,15.8,30.38,ENE,61,6.9,6.9,68,0.00,CLR,,0.00,0.0,WeatherDisplay:10.37,2013-01-24 10:02:00,
2013-01-24 04:07:00,24.8,16.1,30.38,NE,42,11.5,11.5,69,0.00,CLR,,0.00,0.0,WeatherDisplay:10.37,2013-01-24 10:07:00,
2013-01-24 04:12:00,24.7,16.0,30.39,ENE,59,16.1,16.1,69,0.00,CLR,,0.00,0.0,WeatherDisplay:10.37,2013-01-24 10:12:00,
2013-01-24 04:17:00,24.6,15.9,30.39,ENE,61,9.2,9.2,69,0.00,CLR,,0.00,0.0,WeatherDisplay:10.37,2013-01-24 10:17:00,
2013-01-24 04:22:00,24.5,15.8,30.39,NNE,26,5.8,5.8,69,0.00,CLR,,0.00,0.0,WeatherDisplay:10.37,2013-01-24 10:22:00,
2013-01-24 04:27:00,24.3,15.6,30.39,NE,49,13.8,13.8,69,0.00,CLR,,0.00,0.0,WeatherDisplay:10.37,2013-01-24 10:27:00,
2013-01-24 04:32:00,24.2,15.8,30.39,ENE,70,11.0,11.0,70,0.00,CLR,,0.00,0.0,WeatherDisplay:10.37,2013-01-24 10:32:00,
2013-01-24 04:37:00,24.0,15.6,30.39,ENE,57,15.0,15.0,70,0.00,CLR,,0.00,0.0,WeatherDisplay:10.37,2013-01-24 10:37:00,
2013-01-24 04:42:00,23.9,15.5,30.38,NE,56,9.2,9.2,70,0.00,CLR,,0.00,0.0,WeatherDisplay:10.37,2013-01-24 10:42:00,
2013-01-24 04:47:00,23.8,15.4,30.38,NE,49,13.8,13.8,70,0.00,CLR,,0.00,0.0,WeatherDisplay:10.37,2013-01-24 10:47:00,
2013-01-24 04:53:00,23.7,15.7,30.39,NNE,22,13.0,13.0,71,0.00,CLR,,0.00,0.0,WeatherDisplay:10.37,2013-01-24 10:53:00,
2013-01-24 04:58:00,23.5,15.8,30.40,NE,56,11.5,11.5,72,0.00,CLR,,0.00,0.0,WeatherDisplay:10.37,2013-01-24 10:58:00,
2013-01-24 05:03:00,23.5,15.8,30.40,NNE,23,7.0,7.0,72,0.00,CLR,,0.00,0.0,WeatherDisplay:10.37,2013-01-24 11:03:00,
2013-01-24 05:08:00,23.4,15.7,30.40,East,79,11.5,11.5,72,0.00,CLR,,0.00,0.0,WeatherDisplay:10.37,2013-01-24 11:08:00,
2013-01-24 05:13:00,23.3,15.3,30.40,East,93,11.5,11.5,71,0.00,CLR,,0.00,0.0,WeatherDisplay:10.37,2013-01-24 11:13:00,
2013-01-24 05:18:00,23.2,15.5,30.40,ENE,64,8.1,8.1,72,0.00,CLR,,0.00,0.0,WeatherDisplay:10.37,2013-01-24 11:18:00,
2013-01-24 05:23:00,23.1,15.4,30.40,NE,47,10.4,10.4,72,0.00,CLR,,0.00,0.0,WeatherDisplay:10.37,2013-01-24 11:23:00,
2013-01-24 05:28:00,23.0,15.3,30.40,NE,49,11.5,11.5,72,0.00,CLR,,0.00,0.0,WeatherDisplay:10.37,2013-01-24 11:28:00,
2013-01-24 05:33:00,22.9,15.2,30.39,ENE,65,8.1,8.1,72,0.00,CLR,,0.00,0.0,WeatherDisplay:10.37,2013-01-24 11:33:00,
2013-01-24 05:38:00,22.8,15.1,30.39,NE,46,9.2,9.2,72,0.00,CLR,,0.00,0.0,WeatherDisplay:10.37,2013-01-24 11:38:00,
2013-01-24 05:43:00,22.7,15.0,30.39,ENE,58,13.8,13.8,72,0.00,CLR,,0.00,0.0,WeatherDisplay:10.37,2013-01-24 11:43:00,
2013-01-24 05:48:00,22.5,15.1,30.38,ENE,69,12.7,12.7,73,0.00,CLR,,0.00,0.0,WeatherDisplay:10.37,2013-01-24 11:48:00,
2013-01-24 05:53:00,22.4,15.1,30.38,ENE,66,11.5,11.5,73,0.00,CLR,,0.00,0.0,WeatherDisplay:10.37,2013-01-24 11:53:00,
2013-01-24 05:58:00,22.3,15.3,30.37,ENE,61,8.0,8.0,74,0.00,CLR,,0.00,0.0,WeatherDisplay:10.37,2013-01-24 11:58:00,
2013-01-24 06:03:00,22.2,15.2,30.38,ENE,63,9.2,9.2,74,0.00,CLR,,0.00,0.0,WeatherDisplay:10.37,2013-01-24 12:03:00,
2013-01-24 06:08:00,22.1,15.1,30.38,ENE,65,11.5,11.5,74,0.00,CLR,,0.00,0.0,WeatherDisplay:10.37,2013-01-24 12:08:00,
2013-01-24 06:13:00,22.0,15.0,30.38,NE,49,6.9,6.9,74,0.00,CLR,,0.00,0.0,WeatherDisplay:10.37,2013-01-24 12:13:00,
2013-01-24 06:18:00,21.9,15.2,30.38,ENE,58,6.9,6.9,75,0.00,CLR,,0.00,0.0,WeatherDisplay:10.37,2013-01-24 12:18:00,
2013-01-24 06:23:00,21.8,14.8,30.38,East,85,10.4,10.4,74,0.00,CLR,,0.00,0.0,WeatherDisplay:10.37,2013-01-24 12:23:00,
2013-01-24 06:28:00,21.8,15.1,30.39,NE,40,9.2,9.2,75,0.00,CLR,,0.00,0.0,WeatherDisplay:10.37,2013-01-24 12:28:00,
2013-01-24 06:33:00,21.7,15.0,30.39,ENE,74,9.0,9.0,75,0.00,CLR,,0.00,0.0,WeatherDisplay:10.37,2013-01-24 12:33:00,
2013-01-24 06:38:00,21.6,14.9,30.38,NE,46,8.1,8.1,75,0.00,CLR,,0.00,0.0,WeatherDisplay:10.37,2013-01-24 12:38:00,
2013-01-24 06:43:00,21.6,14.9,30.38,NE,45,10.4,10.4,75,0.00,CLR,,0.00,0.0,WeatherDisplay:10.37,2013-01-24 12:43:00,
2013-01-24 06:48:00,21.5,14.8,30.39,NE,34,8.1,8.1,75,0.00,CLR,,0.00,0.0,WeatherDisplay:10.37,2013-01-24 12:48:00,
2013-01-24 06:53:00,21.5,14.8,30.39,ENE,58,12.7,12.7,75,0.00,CLR,,0.00,0.0,WeatherDisplay:10.37,2013-01-24 12:53:00,
2013-01-24 06:58:00,21.5,14.8,30.39,ENE,67,8.0,8.0,75,0.00,CLR,,0.00,0.0,WeatherDisplay:10.37,2013-01-24 12:58:00,
2013-01-24 07:03:00,21.5,14.8,30.39,ENE,69,8.1,8.1,75,0.00,CLR,,0.00,0.0,WeatherDisplay:10.37,2013-01-24 13:03:00,
2013-01-24 07:08:00,21.5,14.8,30.39,NNE,30,5.8,5.8,75,0.00,CLR,,0.00,0.0,WeatherDisplay:10.37,2013-01-24 13:08:00,
2013-01-24 07:13:00,21.4,14.7,30.40,NE,55,6.9,6.9,75,0.00,CLR,,0.00,0.0,WeatherDisplay:10.37,2013-01-24 13:13:00,
2013-01-24 07:18:00,21.5,14.8,30.40,NE,56,6.9,6.9,75,0.00,CLR,,0.00,0.0,WeatherDisplay:10.37,2013-01-24 13:18:00,
2013-01-24 07:23:00,21.4,14.7,30.40,NNE,21,10.4,10.4,75,0.00,CLR,,0.00,0.0,WeatherDisplay:10.37,2013-01-24 13:23:00,
2013-01-24 07:28:00,21.4,14.7,30.40,North,355,6.9,6.9,75,0.00,CLR,,0.00,0.0,WeatherDisplay:10.37,2013-01-24 13:28:00,
2013-01-24 07:33:00,21.3,14.3,30.40,ENE,72,8.0,8.0,74,0.00,CLR,,0.00,0.0,WeatherDisplay:10.37,2013-01-24 13:33:00,
2013-01-24 07:38:00,21.3,14.3,30.40,NE,38,9.2,9.2,74,0.00,CLR,,0.00,0.0,WeatherDisplay:10.37,2013-01-24 13:38:00,
2013-01-24 07:43:00,21.2,14.2,30.40,NE,34,11.5,11.5,74,0.00,OVC,,0.00,0.0,WeatherDisplay:10.37,2013-01-24 13:43:00,
2013-01-24 07:48:00,21.1,14.1,30.39,ENE,57,8.1,8.1,74,0.00,SCT,,0.00,5.0,WeatherDisplay:10.37,2013-01-24 13:48:00,
2013-01-24 07:53:00,21.1,14.1,30.39,NE,52,12.7,12.7,74,0.00,BKN,,0.00,9.0,WeatherDisplay:10.37,2013-01-24 13:53:00,
2013-01-24 07:58:00,20.9,13.9,30.39,NE,46,10.4,10.4,74,0.00,BKN,,0.00,12.0,WeatherDisplay:10.37,2013-01-24 13:58:00,
2013-01-24 08:03:00,20.9,14.2,30.39,ENE,59,5.8,5.8,75,0.00,BKN,,0.00,14.0,WeatherDisplay:10.37,2013-01-24 14:03:00,
2013-01-24 08:08:00,20.8,14.1,30.39,East,101,9.2,9.2,75,0.00,BKN,,0.00,14.0,WeatherDisplay:10.37,2013-01-24 14:08:00,
2013-01-24 08:13:00,20.7,13.7,30.39,North,9,12.7,12.7,74,0.00,BKN,,0.00,16.0,WeatherDisplay:10.37,2013-01-24 14:13:00,
2013-01-24 08:18:00,20.6,13.6,30.39,NE,34,4.6,4.6,74,0.00,BKN,,0.00,30.0,WeatherDisplay:10.37,2013-01-24 14:18:00,
2013-01-24 08:23:00,20.6,13.9,30.39,NE,53,9.2,9.2,75,0.00,BKN,,0.00,39.0,WeatherDisplay:10.37,2013-01-24 14:23:00,
2013-01-24 08:28:00,20.7,14.0,30.39,NE,41,11.5,11.5,75,0.00,BKN,,0.00,37.0,WeatherDisplay:10.37,2013-01-24 14:28:00,
2013-01-24 08:33:00,20.8,14.1,30.39,NE,55,6.9,6.9,75,0.00,BKN,,0.00,49.0,WeatherDisplay:10.37,2013-01-24 14:33:00,
2013-01-24 08:38:00,20.9,13.9,30.39,NE,44,10.4,10.4,74,0.00,SCT,,0.00,70.0,WeatherDisplay:10.37,2013-01-24 14:38:00,
2013-01-24 08:43:00,20.8,13.5,30.39,East,80,8.1,8.1,73,0.00,BKN,,0.00,54.0,WeatherDisplay:10.37,2013-01-24 14:43:00,
2013-01-24 08:48:00,20.8,13.8,30.39,ENE,65,6.9,6.9,74,0.00,BKN,,0.00,54.0,WeatherDisplay:10.37,2013-01-24 14:48:00,
2013-01-24 08:53:00,20.8,13.5,30.40,North,11,11.5,11.5,73,0.00,BKN,,0.00,47.0,WeatherDisplay:10.37,2013-01-24 14:53:00,
2013-01-24 08:58:00,20.8,13.8,30.41,ENE,69,10.4,10.4,74,0.00,BKN,,0.00,51.0,WeatherDisplay:10.37,2013-01-24 14:58:00,
2013-01-24 09:03:00,20.9,13.6,30.40,ENE,58,8.1,8.1,73,0.00,BKN,,0.00,51.0,WeatherDisplay:10.37,2013-01-24 15:03:00,
2013-01-24 09:08:00,20.9,13.3,30.41,NE,52,11.5,11.5,72,0.00,BKN,,0.00,30.0,WeatherDisplay:10.37,2013-01-24 15:08:00,
2013-01-24 09:13:00,20.9,13.3,30.41,NE,43,11.5,11.5,72,0.00,BKN,,0.00,23.0,WeatherDisplay:10.37,2013-01-24 15:13:00,
2013-01-24 09:18:00,20.7,13.1,30.40,ENE,61,11.5,11.5,72,0.00,BKN,,0.00,23.0,WeatherDisplay:10.37,2013-01-24 15:18:00,
2013-01-24 09:23:00,20.8,13.2,30.40,NE,46,11.5,11.5,72,0.00,BKN,,0.00,42.0,WeatherDisplay:10.37,2013-01-24 15:23:00,
2013-01-24 09:28:00,20.8,12.9,30.40,ENE,59,9.2,9.2,71,0.00,BKN,,0.00,62.0,WeatherDisplay:10.37,2013-01-24 15:28:00,
2013-01-24 09:33:00,20.9,13.3,30.41,NE,40,10.0,10.0,72,0.00,BKN,,0.00,58.0,WeatherDisplay:10.37,2013-01-24 15:33:00,
2013-01-24 09:38:00,21.1,13.2,30.41,North,360,10.4,10.4,71,0.00,BKN,,0.00,54.0,WeatherDisplay:10.37,2013-01-24 15:38:00,
2013-01-24 09:43:00,21.3,13.0,30.40,NE,44,10.4,10.4,70,0.00,BKN,,0.00,74.0,WeatherDisplay:10.37,2013-01-24 15:43:00,
2013-01-24 09:48:00,21.4,12.8,30.40,NE,51,9.2,9.2,69,0.00,BKN,,0.00,74.0,WeatherDisplay:10.37,2013-01-24 15:48:00,
2013-01-24 09:53:00,21.5,13.2,30.40,NE,42,5.8,5.8,70,0.00,BKN,,0.00,81.0,WeatherDisplay:10.37,2013-01-24 15:53:00,
2013-01-24 09:58:00,21.7,13.1,30.40,NE,51,5.8,5.8,69,0.00,BKN,,0.00,105.0,WeatherDisplay:10.37,2013-01-24 15:58:00,
2013-01-24 10:03:00,21.9,13.0,30.40,ENE,57,9.2,9.2,68,0.00,BKN,,0.00,111.0,WeatherDisplay:10.37,2013-01-24 16:03:00,
2013-01-24 10:08:00,22.1,13.1,30.40,NE,46,8.1,8.1,68,0.00,BKN,,0.00,137.0,WeatherDisplay:10.37,2013-01-24 16:08:00,
2013-01-24 10:13:00,22.3,13.0,30.40,ENE,58,9.2,9.2,67,0.00,BKN,,0.00,149.0,WeatherDisplay:10.37,2013-01-24 16:13:00,
2013-01-24 10:18:00,22.5,12.8,30.40,NE,54,9.2,9.2,66,0.00,BKN,,0.00,151.0,WeatherDisplay:10.37,2013-01-24 16:18:00,
2013-01-24 10:23:00,22.7,12.7,30.41,NNE,29,5.8,5.8,65,0.00,BKN,,0.00,141.0,WeatherDisplay:10.37,2013-01-24 16:23:00,
2013-01-24 10:28:00,22.9,12.5,30.40,ENE,57,8.1,8.1,64,0.00,BKN,,0.00,158.0,WeatherDisplay:10.37,2013-01-24 16:28:00,
2013-01-24 10:33:00,23.0,12.6,30.41,NE,40,10.4,10.4,64,0.00,BKN,,0.00,151.0,WeatherDisplay:10.37,2013-01-24 16:33:00,
2013-01-24 10:38:00,23.1,12.4,30.41,ENE,59,9.2,9.2,63,0.00,BKN,,0.00,160.0,WeatherDisplay:10.37,2013-01-24 16:38:00,
2013-01-24 10:43:00,23.2,12.8,30.41,NE,54,8.1,8.1,64,0.00,BKN,,0.00,158.0,WeatherDisplay:10.37,2013-01-24 16:43:00,
2013-01-24 10:48:00,23.5,12.7,30.41,ENE,57,10.4,10.4,63,0.00,BKN,,0.00,153.0,WeatherDisplay:10.37,2013-01-24 16:48:00,
2013-01-24 10:53:00,23.6,12.5,30.41,ENE,61,10.4,10.4,62,0.00,BKN,,0.00,123.0,WeatherDisplay:10.37,2013-01-24 16:53:00,
2013-01-24 10:58:00,23.6,12.5,30.42,NNE,13,16.1,16.1,62,0.00,BKN,,0.00,118.0,WeatherDisplay:10.37,2013-01-24 16:58:00,
2013-01-24 11:03:00,23.6,12.5,30.42,North,355,10.4,10.4,62,0.00,BKN,,0.00,93.0,WeatherDisplay:10.37,2013-01-24 17:03:00,
2013-01-24 11:08:00,23.7,12.6,30.42,NE,35,11.5,11.5,62,0.00,BKN,,0.00,114.0,WeatherDisplay:10.37,2013-01-24 17:08:00,
2013-01-24 11:13:00,23.5,12.4,30.42,NE,40,10.4,10.4,62,0.00,BKN,,0.00,107.0,WeatherDisplay:10.37,2013-01-24 17:13:00,
2013-01-24 11:18:00,23.5,12.4,30.42,NE,37,9.2,9.2,62,0.00,BKN,,0.00,132.0,WeatherDisplay:10.37,2013-01-24 17:18:00,
2013-01-24 11:23:00,23.7,12.2,30.42,ENE,67,11.5,11.5,61,0.00,BKN,,0.00,128.0,WeatherDisplay:10.37,2013-01-24 17:23:00,
2013-01-24 11:28:00,23.8,12.7,30.41,NE,55,11.5,11.5,62,0.00,BKN,,0.00,125.0,WeatherDisplay:10.37,2013-01-24 17:28:00,
2013-01-24 11:33:00,23.8,12.3,30.41,NE,46,12.7,12.7,61,0.00,BKN,,0.00,123.0,WeatherDisplay:10.37,2013-01-24 17:33:00,
2013-01-24 11:38:00,23.6,12.1,30.41,NNE,33,3.5,3.5,61,0.00,BKN,,0.00,88.0,WeatherDisplay:10.37,2013-01-24 17:38:00,
2013-01-24 11:43:00,23.8,12.3,30.40,NE,36,9.2,9.2,61,0.00,BKN,,0.00,114.0,WeatherDisplay:10.37,2013-01-24 17:43:00,
2013-01-24 11:48:00,23.8,12.3,30.40,ENE,60,9.2,9.2,61,0.00,BKN,,0.00,93.0,WeatherDisplay:10.37,2013-01-24 17:48:00,
2013-01-24 11:53:00,23.8,12.3,30.39,ENE,59,10.0,10.0,61,0.00,BKN,,0.00,109.0,WeatherDisplay:10.37,2013-01-24 17:53:00,
2013-01-24 11:58:00,24.0,12.5,30.38,NNE,32,8.1,8.1,61,0.00,BKN,,0.00,127.0,WeatherDisplay:10.37,2013-01-24 17:58:00,
2013-01-24 12:03:00,24.2,12.7,30.38,NE,55,9.2,9.2,61,0.00,BKN,,0.00,125.0,WeatherDisplay:10.37,2013-01-24 18:03:00,
2013-01-24 12:08:00,24.3,12.0,30.37,NE,51,11.5,11.5,59,0.00,BKN,,0.00,176.0,WeatherDisplay:10.37,2013-01-24 18:08:00,
2013-01-24 12:13:00,24.7,12.8,30.36,NE,41,12.7,12.7,60,0.00,BKN,,0.00,204.0,WeatherDisplay:10.37,2013-01-24 18:13:00,
2013-01-24 12:18:00,25.0,12.7,30.37,NE,45,10.4,10.4,59,0.00,BKN,,0.00,151.0,WeatherDisplay:10.37,2013-01-24 18:18:00,
2013-01-24 12:23:00,25.2,12.9,30.36,ENE,69,8.1,8.1,59,0.00,BKN,,0.00,144.0,WeatherDisplay:10.37,2013-01-24 18:23:00,
2013-01-24 12:28:00,25.6,12.9,30.36,East,84,5.8,5.8,58,0.00,BKN,,0.00,176.0,WeatherDisplay:10.37,2013-01-24 18:28:00,
2013-01-24 12:33:00,26.0,13.2,30.35,ENE,74,8.1,8.1,58,0.00,BKN,,0.00,167.0,WeatherDisplay:10.37,2013-01-24 18:33:00,
2013-01-24 12:38:00,26.1,12.9,30.34,ENE,61,9.2,9.2,57,0.00,BKN,,0.00,207.0,WeatherDisplay:10.37,2013-01-24 18:38:00,
2013-01-24 12:43:00,26.3,13.1,30.34,ENE,67,6.9,6.9,57,0.00,BKN,,0.00,248.0,WeatherDisplay:10.37,2013-01-24 18:43:00,
2013-01-24 12:48:00,26.5,12.9,30.33,ENE,65,8.1,8.1,56,0.00,BKN,,0.00,243.0,WeatherDisplay:10.37,2013-01-24 18:48:00,
2013-01-24 12:53:00,26.8,12.8,30.33,East,96,9.2,9.2,55,0.00,BKN,,0.00,156.0,WeatherDisplay:10.37,2013-01-24 18:53:00,
2013-01-24 12:58:00,26.8,13.2,30.33,ENE,67,8.1,8.1,56,0.00,BKN,,0.00,234.0,WeatherDisplay:10.37,2013-01-24 18:58:00,
2013-01-24 13:03:00,26.9,12.9,30.32,ENE,65,9.2,9.2,55,0.00,BKN,,0.00,174.0,WeatherDisplay:10.37,2013-01-24 19:03:00,
2013-01-24 13:08:00,27.1,13.1,30.32,East,82,3.5,3.5,55,0.00,BKN,,0.00,225.0,WeatherDisplay:10.37,2013-01-24 19:08:00,
2013-01-24 13:13:00,27.4,13.3,30.31,East,88,5.8,5.8,55,0.00,BKN,,0.00,216.0,WeatherDisplay:10.37,2013-01-24 19:13:00,
2013-01-24 13:18:00,27.6,13.1,30.31,East,91,6.9,6.9,54,0.00,BKN,,0.00,153.0,WeatherDisplay:10.37,2013-01-24 19:18:00,
2013-01-24 13:23:00,27.8,13.3,30.32,East,90,6.9,6.9,54,0.00,BKN,,0.00,237.0,WeatherDisplay:10.37,2013-01-24 19:23:00,
2013-01-24 13:28:00,28.1,13.1,30.32,East,84,5.8,5.8,53,0.00,BKN,,0.00,181.0,WeatherDisplay:10.37,2013-01-24 19:28:00,
2013-01-24 13:33:00,28.3,13.3,30.32,ENE,71,3.5,3.5,53,0.00,BKN,,0.00,137.0,WeatherDisplay:10.37,2013-01-24 19:33:00,
2013-01-24 13:38:00,28.4,12.6,30.31,NE,55,3.5,3.5,51,0.00,BKN,,0.00,130.0,WeatherDisplay:10.37,2013-01-24 19:38:00,
2013-01-24 13:43:00,28.5,12.6,30.31,ESE,115,3.5,3.5,51,0.00,BKN,,0.00,98.0,WeatherDisplay:10.37,2013-01-24 19:43:00,
2013-01-24 13:48:00,28.5,12.2,30.30,East,95,4.6,4.6,50,0.00,BKN,,0.00,83.0,WeatherDisplay:10.37,2013-01-24 19:48:00,
2013-01-24 13:53:00,28.4,12.1,30.30,East,88,3.5,3.5,50,0.00,BKN,,0.00,77.0,WeatherDisplay:10.37,2013-01-24 19:53:00,
2013-01-24 13:58:00,28.3,12.0,30.30,East,89,5.8,5.8,50,0.00,BKN,,0.00,79.0,WeatherDisplay:10.37,2013-01-24 19:58:00,
2013-01-24 14:03:00,28.3,12.0,30.30,NE,55,3.5,3.5,50,0.00,BKN,,0.00,58.0,WeatherDisplay:10.37,2013-01-24 20:03:00,
2013-01-24 14:08:00,28.3,12.5,30.29,East,92,3.5,3.5,51,0.00,BKN,,0.00,69.0,WeatherDisplay:10.37,2013-01-24 20:08:00,
2013-01-24 14:13:00,28.3,12.5,30.29,ENE,76,2.3,2.3,51,0.00,BKN,,0.00,54.0,WeatherDisplay:10.37,2013-01-24 20:13:00,
2013-01-24 14:18:00,28.4,12.6,30.28,ENE,62,3.5,3.5,51,0.00,BKN,,0.00,100.0,WeatherDisplay:10.37,2013-01-24 20:18:00,
2013-01-24 14:23:00,28.4,12.6,30.29,East,88,5.8,5.8,51,0.00,BKN,,0.00,95.0,WeatherDisplay:10.37,2013-01-24 20:23:00,
2013-01-24 14:28:00,28.4,12.1,30.28,NE,36,3.5,3.5,50,0.00,BKN,,0.00,102.0,WeatherDisplay:10.37,2013-01-24 20:28:00,
2013-01-24 14:33:00,28.5,12.2,30.27,ENE,61,3.5,3.5,50,0.00,BKN,,0.00,102.0,WeatherDisplay:10.37,2013-01-24 20:33:00,
2013-01-24 14:38:00,28.6,12.7,30.27,NE,53,6.9,6.9,51,0.00,BKN,,0.00,111.0,WeatherDisplay:10.37,2013-01-24 20:38:00,
2013-01-24 14:43:00,28.8,12.9,30.26,East,89,4.6,4.6,51,0.00,BKN,,0.00,120.0,WeatherDisplay:10.37,2013-01-24 20:43:00,
2013-01-24 14:48:00,28.8,12.5,30.26,ENE,77,4.0,4.0,50,0.00,BKN,,0.00,83.0,WeatherDisplay:10.37,2013-01-24 20:48:00,
2013-01-24 14:53:00,28.8,12.9,30.26,ENE,62,3.5,3.5,51,0.00,BKN,,0.00,40.0,WeatherDisplay:10.37,2013-01-24 20:53:00,
2013-01-24 14:58:00,28.8,13.4,30.27,NE,38,4.6,4.6,52,0.00,OVC,,0.00,21.0,WeatherDisplay:10.37,2013-01-24 20:58:00,
2013-01-24 15:03:00,28.7,13.3,30.27,ENE,65,3.5,3.5,52,0.00,BKN,,0.00,56.0,WeatherDisplay:10.37,2013-01-24 21:03:00,
2013-01-24 15:08:00,28.7,14.1,30.27,East,88,3.5,3.5,54,0.00,BKN,,0.00,44.0,WeatherDisplay:10.37,2013-01-24 21:08:00,
2013-01-24 15:13:00,28.7,13.7,30.26,East,96,2.3,2.3,53,0.00,BKN,,0.00,58.0,WeatherDisplay:10.37,2013-01-24 21:13:00,
2013-01-24 15:18:00,28.7,14.1,30.25,SE,130,4.6,4.6,54,0.00,BKN,,0.00,125.0,WeatherDisplay:10.37,2013-01-24 21:18:00,
2013-01-24 15:23:00,28.9,13.5,30.25,ENE,67,3.5,3.5,52,0.00,BKN,,0.00,95.0,WeatherDisplay:10.37,2013-01-24 21:23:00,
2013-01-24 15:28:00,28.9,13.9,30.25,East,84,1.1,1.1,53,0.00,BKN,,0.00,60.0,WeatherDisplay:10.37,2013-01-24 21:28:00,
2013-01-24 15:33:00,29.0,14.0,30.26,ESE,121,1.1,1.1,53,0.00,BKN,,0.00,58.0,WeatherDisplay:10.37,2013-01-24 21:33:00,
2013-01-24 15:38:00,29.0,15.7,30.26,NNE,28,3.5,3.5,57,0.00,BKN,,0.00,79.0,WeatherDisplay:10.37,2013-01-24 21:38:00,
2013-01-24 15:43:00,28.9,16.7,30.26,NNE,33,3.5,3.5,60,0.00,BKN,,0.00,74.0,WeatherDisplay:10.37,2013-01-24 21:43:00,
2013-01-24 15:48:00,28.9,14.7,30.26,NE,40,0.0,0.0,55,0.00,BKN,,0.00,88.0,WeatherDisplay:10.37,2013-01-24 21:48:00,
2013-01-24 15:53:00,28.9,15.2,30.26,East,96,5.0,5.0,56,0.00,BKN,,0.00,47.0,WeatherDisplay:10.37,2013-01-24 21:53:00,
2013-01-24 15:58:00,28.9,15.6,30.25,East,96,3.5,3.5,57,0.00,BKN,,0.00,30.0,WeatherDisplay:10.37,2013-01-24 21:58:00,
2013-01-24 16:03:00,28.8,15.5,30.26,East,101,4.6,4.6,57,0.00,BKN,,0.00,25.0,WeatherDisplay:10.37,2013-01-24 22:03:00,
2013-01-24 16:08:00,28.7,16.2,30.25,East,94,3.0,3.0,59,0.00,BKN,,0.00,35.0,WeatherDisplay:10.37,2013-01-24 22:08:00,
2013-01-24 16:13:00,28.6,16.8,30.25,East,84,5.8,5.8,61,0.00,BKN,,0.00,49.0,WeatherDisplay:10.37,2013-01-24 22:13:00,
2013-01-24 16:18:00,28.4,16.7,30.24,East,86,3.5,3.5,61,0.00,BKN,,0.00,56.0,WeatherDisplay:10.37,2013-01-24 22:18:00,
2013-01-24 16:23:00,28.3,16.6,30.23,ESE,121,2.3,2.3,61,0.00,BKN,,0.00,40.0,WeatherDisplay:10.37,2013-01-24 22:23:00,
2013-01-24 16:28:00,28.3,16.6,30.24,East,86,3.5,3.5,61,0.00,BKN,,0.00,21.0,WeatherDisplay:10.37,2013-01-24 22:28:00,
2013-01-24 16:33:00,28.2,16.1,30.23,East,80,5.0,5.0,60,0.00,BKN,,0.00,26.0,WeatherDisplay:10.37,2013-01-24 22:33:00,
2013-01-24 16:38:00,28.3,16.2,30.22,East,79,2.3,2.3,60,0.00,BKN,,0.00,33.0,WeatherDisplay:10.37,2013-01-24 22:38:00,
2013-01-24 16:43:00,28.3,15.4,30.21,East,88,5.8,5.8,58,0.00,BKN,,0.00,39.0,WeatherDisplay:10.37,2013-01-24 22:43:00,
2013-01-24 16:48:00,28.3,15.0,30.20,ESE,113,6.9,6.9,57,0.00,SCT,,0.00,72.0,WeatherDisplay:10.37,2013-01-24 22:48:00,
2013-01-24 16:53:00,28.4,15.1,30.18,ENE,67,8.1,8.1,57,0.00,CLR,,0.00,93.0,WeatherDisplay:10.37,2013-01-24 22:53:00,
2013-01-24 16:58:00,28.4,15.5,30.17,East,89,11.5,11.5,58,0.00,SCT,,0.00,54.0,WeatherDisplay:10.37,2013-01-24 22:58:00,
2013-01-24 17:03:00,28.3,16.2,30.19,SE,130,6.9,6.9,60,0.00,BKN,,0.00,25.0,WeatherDisplay:10.37,2013-01-24 23:03:00,
2013-01-24 17:08:00,28.0,16.3,30.20,ESE,111,4.6,4.6,61,0.00,BKN,,0.00,12.0,WeatherDisplay:10.37,2013-01-24 23:08:00,
2013-01-24 17:13:00,27.8,16.8,30.21,East,85,5.0,5.0,63,0.00,BKN,,0.00,14.0,WeatherDisplay:10.37,2013-01-24 23:13:00,
2013-01-24 17:18:00,27.5,16.9,30.22,East,97,4.6,4.6,64,0.00,BKN,,0.00,7.0,WeatherDisplay:10.37,2013-01-24 23:18:00,
2013-01-24 17:23:00,27.3,17.1,30.22,East,101,5.0,5.0,65,0.00,BKN,,0.00,5.0,WeatherDisplay:10.37,2013-01-24 23:23:00,
2013-01-24 17:28:00,27.1,17.6,30.22,East,94,4.6,4.6,67,0.00,BKN,,0.00,5.0,WeatherDisplay:10.37,2013-01-24 23:28:00,
2013-01-24 17:33:00,27.0,17.8,30.24,ESE,121,3.5,3.5,68,0.00,OVC,,0.00,0.0,WeatherDisplay:10.37,2013-01-24 23:33:00,
2013-01-24 17:38:00,26.9,17.7,30.24,ENE,77,2.3,2.3,68,0.00,OVC,,0.00,0.0,WeatherDisplay:10.37,2013-01-24 23:38:00,
2013-01-24 17:43:00,26.8,17.6,30.24,East,84,3.5,3.5,68,0.00,OVC,,0.00,0.0,WeatherDisplay:10.37,2013-01-24 23:43:00,
2013-01-24 17:48:00,26.8,18.0,30.25,East,84,2.3,2.3,69,0.00,CLR,,0.00,0.0,WeatherDisplay:10.37,2013-01-24 23:48:00,
2013-01-24 17:53:00,26.7,17.9,30.24,East,84,2.3,2.3,69,0.00,CLR,,0.00,0.0,WeatherDisplay:10.37,2013-01-24 23:53:00,
2013-01-24 17:58:00,26.7,17.9,30.24,East,84,2.3,2.3,69,0.00,CLR,,0.00,0.0,WeatherDisplay:10.37,2013-01-24 23:58:00,
2013-01-24 18:03:00,26.7,18.2,30.25,East,84,2.3,2.3,70,0.00,CLR,,0.00,0.0,WeatherDisplay:10.37,2013-01-25 00:03:00,
2013-01-24 18:08:00,26.6,18.1,30.25,East,84,2.3,2.3,70,0.00,CLR,,0.00,0.0,WeatherDisplay:10.37,2013-01-25 00:08:00,
2013-01-24 18:13:00,26.6,18.8,30.24,SE,136,3.5,3.5,72,0.00,CLR,,0.00,0.0,WeatherDisplay:10.37,2013-01-25 00:13:00,
2013-01-24 18:18:00,26.5,19.6,30.25,ESE,103,3.5,3.5,75,0.00,CLR,,0.00,0.0,WeatherDisplay:10.37,2013-01-25 00:18:00,
2013-01-24 18:23:00,26.3,20.4,30.25,East,88,3.5,3.5,78,0.00,CLR,,0.00,0.0,WeatherDisplay:10.37,2013-01-25 00:23:00,
2013-01-24 18:28:00,26.1,20.5,30.24,East,84,4.6,4.6,79,0.00,CLR,,0.00,0.0,WeatherDisplay:10.37,2013-01-25 00:28:00,
2013-01-24 18:33:00,26.0,21.0,30.25,ESE,113,1.1,1.1,81,0.00,CLR,,0.00,0.0,WeatherDisplay:10.37,2013-01-25 00:33:00,
2013-01-24 18:38:00,25.8,20.8,30.25,SE,144,4.6,4.6,81,0.00,CLR,,0.00,0.0,WeatherDisplay:10.37,2013-01-25 00:38:00,
2013-01-24 18:43:00,25.7,21.0,30.26,SE,144,2.3,2.3,82,0.00,CLR,,0.00,0.0,WeatherDisplay:10.37,2013-01-25 00:43:00,
2013-01-24 18:48:00,25.6,20.9,30.25,SE,144,2.3,2.3,82,0.00,CLR,,0.00,0.0,WeatherDisplay:10.37,2013-01-25 00:48:00,
2013-01-24 18:53:00,25.5,21.1,30.25,SE,144,0.0,0.0,83,0.00,CLR,,0.00,0.0,WeatherDisplay:10.37,2013-01-25 00:53:00,
2013-01-24 18:58:00,25.4,21.2,30.24,East,92,3.5,3.5,84,0.00,CLR,,0.00,0.0,WeatherDisplay:10.37,2013-01-25 00:58:00,
2013-01-24 19:03:00,25.4,21.5,30.23,East,99,3.5,3.5,85,0.00,CLR,,0.00,0.0,WeatherDisplay:10.37,2013-01-25 01:03:00,
2013-01-24 19:08:00,25.3,21.7,30.23,East,88,2.3,2.3,86,0.00,CLR,,0.00,0.0,WeatherDisplay:10.37,2013-01-25 01:08:00,
2013-01-24 19:13:00,25.2,21.6,30.24,East,89,2.3,2.3,86,0.00,CLR,,0.00,0.0,WeatherDisplay:10.37,2013-01-25 01:13:00,
2013-01-24 19:18:00,25.2,21.9,30.23,East,88,3.5,3.5,87,0.00,CLR,,0.00,0.0,WeatherDisplay:10.37,2013-01-25 01:18:00,
2013-01-24 19:23:00,25.2,21.9,30.23,East,88,3.5,3.5,87,0.00,CLR,,0.00,0.0,WeatherDisplay:10.37,2013-01-25 01:23:00,
2013-01-24 19:28:00,25.1,21.8,30.24,East,88,2.3,2.3,87,0.00,CLR,,0.00,0.0,WeatherDisplay:10.37,2013-01-25 01:28:00,
2013-01-24 19:33:00,25.1,21.8,30.25,East,88,2.3,2.3,87,0.00,CLR,,0.00,0.0,WeatherDisplay:10.37,2013-01-25 01:33:00,
2013-01-24 19:38:00,25.1,21.8,30.25,ESE,104,3.5,3.5,87,0.00,CLR,,0.00,0.0,WeatherDisplay:10.37,2013-01-25 01:38:00,
2013-01-24 19:43:00,25.1,21.8,30.25,South,170,2.3,2.3,87,0.00,CLR,,0.00,0.0,WeatherDisplay:10.37,2013-01-25 01:43:00,
2013-01-24 19:48:00,25.1,21.8,30.26,South,170,0.0,0.0,87,0.00,CLR,,0.00,0.0,WeatherDisplay:10.37,2013-01-25 01:48:00,
2013-01-24 19:53:00,25.1,21.8,30.26,South,170,3.5,3.5,87,0.00,CLR,,0.00,0.0,WeatherDisplay:10.37,2013-01-25 01:53:00,
2013-01-24 19:58:00,25.1,21.5,30.26,South,170,2.3,2.3,86,0.00,CLR,,0.00,0.0,WeatherDisplay:10.37,2013-01-25 01:58:00,
2013-01-24 20:03:00,25.1,21.5,30.26,South,170,1.1,0.0,86,0.00,CLR,,0.00,0.0,WeatherDisplay:10.37,2013-01-25 02:03:00,
2013-01-24 20:08:00,25.1,21.5,30.26,South,170,1.1,1.1,86,0.00,CLR,,0.00,0.0,WeatherDisplay:10.37,2013-01-25 02:08:00,
2013-01-24 20:13:00,25.2,21.6,30.25,South,170,0.0,0.0,86,0.00,CLR,,0.00,0.0,WeatherDisplay:10.37,2013-01-25 02:13:00,
2013-01-24 20:18:00,25.2,21.6,30.25,South,170,0.0,0.1,86,0.00,CLR,,0.00,0.0,WeatherDisplay:10.37,2013-01-25 02:18:00,
2013-01-24 20:23:00,25.2,21.6,30.25,South,170,0.0,0.0,86,0.00,CLR,,0.00,0.0,WeatherDisplay:10.37,2013-01-25 02:23:00,
2013-01-24 20:28:00,25.1,21.5,30.25,South,170,0.0,0.0,86,0.00,CLR,,0.00,0.0,WeatherDisplay:10.37,2013-01-25 02:28:00,
2013-01-24 20:33:00,25.2,21.6,30.25,South,170,0.0,0.0,86,0.00,CLR,,0.00,0.0,WeatherDisplay:10.37,2013-01-25 02:33:00,
2013-01-24 20:38:00,25.2,21.9,30.25,South,170,0.0,0.0,87,0.00,CLR,,0.00,0.0,WeatherDisplay:10.37,2013-01-25 02:38:00,
2013-01-24 20:43:00,25.2,21.9,30.25,South,170,0.0,0.0,87,0.00,CLR,,0.00,0.0,WeatherDisplay:10.37,2013-01-25 02:43:00,
2013-01-24 20:48:00,25.2,21.9,30.25,South,170,0.0,0.0,87,0.00,CLR,,0.00,0.0,WeatherDisplay:10.37,2013-01-25 02:48:00,
2013-01-24 20:53:00,25.2,21.9,30.25,South,170,1.1,1.1,87,0.00,CLR,,0.00,0.0,WeatherDisplay:10.37,2013-01-25 02:53:00,
2013-01-24 20:58:00,25.1,21.8,30.25,South,170,1.1,1.1,87,0.00,CLR,,0.00,0.0,WeatherDisplay:10.37,2013-01-25 02:58:00,
2013-01-24 21:03:00,25.1,22.0,30.25,South,170,0.0,0.0,88,0.00,CLR,,0.00,0.0,WeatherDisplay:10.37,2013-01-25 03:03:00,
2013-01-24 21:08:00,25.1,22.0,30.26,South,170,2.3,2.3,88,0.00,CLR,,0.00,0.0,WeatherDisplay:10.37,2013-01-25 03:08:00,
2013-01-24 21:13:00,25.1,22.0,30.25,South,170,0.0,0.0,88,0.00,CLR,,0.00,0.0,WeatherDisplay:10.37,2013-01-25 03:13:00,
2013-01-24 21:18:00,25.1,22.0,30.26,South,170,0.0,0.0,88,0.00,CLR,,0.00,0.0,WeatherDisplay:10.37,2013-01-25 03:18:00,
2013-01-24 21:23:00,25.1,22.0,30.25,South,170,1.1,1.1,88,0.00,CLR,,0.00,0.0,WeatherDisplay:10.37,2013-01-25 03:23:00,
2013-01-24 21:28:00,25.1,22.3,30.25,South,170,1.0,0.0,89,0.00,CLR,,0.00,0.0,WeatherDisplay:10.37,2013-01-25 03:28:00,
2013-01-24 21:33:00,25.1,22.3,30.25,South,170,1.1,1.1,89,0.00,CLR,,0.00,0.0,WeatherDisplay:10.37,2013-01-25 03:33:00,
2013-01-24 21:38:00,25.1,22.3,30.25,South,170,2.3,2.3,89,0.00,CLR,,0.00,0.0,WeatherDisplay:10.37,2013-01-25 03:38:00,
2013-01-24 21:43:00,25.2,22.4,30.25,South,170,2.3,2.3,89,0.00,CLR,,0.00,0.0,WeatherDisplay:10.37,2013-01-25 03:43:00,
2013-01-24 21:48:00,25.2,22.7,30.26,SSW,206,3.5,3.5,90,0.00,CLR,,0.00,0.0,WeatherDisplay:10.37,2013-01-25 03:48:00,
2013-01-24 21:53:00,25.1,22.6,30.26,SSW,207,3.5,3.5,90,0.00,CLR,,0.00,0.0,WeatherDisplay:10.37,2013-01-25 03:53:00,
2013-01-24 21:58:00,25.1,22.6,30.26,SW,222,3.5,3.5,90,0.00,CLR,,0.00,0.0,WeatherDisplay:10.37,2013-01-25 03:58:00,
2013-01-24 22:03:00,25.1,22.6,30.25,SW,219,1.1,1.1,90,0.00,CLR,,0.00,0.0,WeatherDisplay:10.37,2013-01-25 04:03:00,
2013-01-24 22:08:00,25.1,22.6,30.25,SW,226,3.5,3.5,90,0.00,CLR,,0.00,0.0,WeatherDisplay:10.37,2013-01-25 04:08:00,
2013-01-24 22:13:00,25.1,22.6,30.24,SW,226,2.3,2.3,90,0.00,CLR,,0.00,0.0,WeatherDisplay:10.37,2013-01-25 04:13:00,
2013-01-24 22:18:00,25.1,22.8,30.24,SW,226,2.3,2.3,91,0.00,CLR,,0.00,0.0,WeatherDisplay:10.37,2013-01-25 04:18:00,
2013-01-24 22:23:00,25.1,22.6,30.24,SW,226,0.0,0.0,90,0.00,CLR,,0.00,0.0,WeatherDisplay:10.37,2013-01-25 04:23:00,
2013-01-24 22:28:00,25.1,22.6,30.24,SW,226,0.0,0.0,90,0.00,CLR,,0.00,0.0,WeatherDisplay:10.37,2013-01-25 04:28:00,
2013-01-24 22:33:00,25.1,22.8,30.24,SW,226,0.0,0.0,91,0.00,CLR,,0.00,0.0,WeatherDisplay:10.37,2013-01-25 04:33:00,
2013-01-24 22:38:00,25.2,22.9,30.24,SW,226,0.0,0.0,91,0.00,CLR,,0.00,0.0,WeatherDisplay:10.37,2013-01-25 04:38:00,
2013-01-24 22:43:00,25.3,23.0,30.25,SW,226,0.0,0.0,91,0.00,CLR,,0.00,0.0,WeatherDisplay:10.37,2013-01-25 04:43:00,
2013-01-24 22:48:00,25.3,23.0,30.25,SW,226,0.0,0.0,91,0.00,CLR,,0.00,0.0,WeatherDisplay:10.37,2013-01-25 04:48:00,
2013-01-24 22:53:00,25.4,23.1,30.25,SW,226,0.0,0.0,91,0.00,CLR,,0.00,0.0,WeatherDisplay:10.37,2013-01-25 04:53:00,
2013-01-24 22:58:00,25.4,23.1,30.25,SW,226,1.1,1.1,91,0.00,CLR,,0.00,0.0,WeatherDisplay:10.37,2013-01-25 04:58:00,
2013-01-24 23:03:00,25.4,23.1,30.25,SW,226,1.1,1.1,91,0.00,CLR,,0.00,0.0,WeatherDisplay:10.37,2013-01-25 05:03:00,
2013-01-24 23:08:00,25.5,23.2,30.25,SW,226,0.0,0.0,91,0.00,CLR,,0.00,0.0,WeatherDisplay:10.37,2013-01-25 05:08:00,
2013-01-24 23:13:00,25.6,23.1,30.25,SW,226,1.1,1.1,90,0.00,CLR,,0.00,0.0,WeatherDisplay:10.37,2013-01-25 05:13:00,
2013-01-24 23:18:00,25.6,23.1,30.25,SW,226,2.3,2.3,90,0.00,CLR,,0.00,0.0,WeatherDisplay:10.37,2013-01-25 05:18:00,
2013-01-24 23:23:00,25.7,23.2,30.25,NNW,331,2.3,2.3,90,0.00,CLR,,0.00,0.0,WeatherDisplay:10.37,2013-01-25 05:23:00,
2013-01-24 23:28:00,25.8,23.3,30.25,NNW,331,2.0,2.0,90,0.00,CLR,,0.00,0.0,WeatherDisplay:10.37,2013-01-25 05:28:00,
2013-01-24 23:33:00,25.8,23.3,30.25,NNW,331,2.3,0.0,90,0.00,CLR,,0.00,0.0,WeatherDisplay:10.37,2013-01-25 05:33:00,
2013-01-24 23:38:00,25.9,23.4,30.24,NNW,331,0.0,0.0,90,0.00,CLR,,0.00,0.0,WeatherDisplay:10.37,2013-01-25 05:38:00,
2013-01-24 23:43:00,26.0,23.2,30.24,NNW,331,2.3,2.3,89,0.00,CLR,,0.00,0.0,WeatherDisplay:10.37,2013-01-25 05:43:00,
2013-01-24 23:48:00,26.0,23.2,30.23,NNW,331,2.3,2.3,89,0.00,CLR,,0.00,0.0,WeatherDisplay:10.37,2013-01-25 05:48:00,
2013-01-24 23:53:00,26.0,23.2,30.24,NNW,331,3.5,3.5,89,0.00,CLR,,0.00,0.0,WeatherDisplay:10.37,2013-01-25 05:53:00,
2013-01-24 23:58:00,26.1,23.0,30.23,NW,319,3.5,3.5,88,0.00,CLR,,0.00,0.0,WeatherDisplay:10.37,2013-01-25 05:58:00,